createdAt,value
2018-11-01T00:02:09.984Z,27.10
2018-11-01T00:04:38.881Z,27.87
2018-11-01T00:07:07.434Z,26.97
2018-11-01T00:09:36.075Z,30.60
2018-11-01T00:12:04.698Z,26.47
2018-11-01T00:14:33.391Z,32.70
2018-11-01T00:17:02.145Z,26.10
2018-11-01T00:19:30.797Z,22.57
2018-11-01T00:21:59.325Z,25.00
2018-11-01T00:24:27.933Z,19.60
2018-11-01T00:26:56.568Z,18.87
2018-11-01T00:29:25.290Z,21.17
2018-11-01T00:31:53.875Z,18.87
2018-11-01T00:34:22.430Z,20.13
2018-11-01T00:36:50.982Z,21.07
2018-11-01T00:39:19.549Z,21.67
2018-11-01T00:41:48.373Z,23.10
2018-11-01T00:44:16.976Z,22.73
2018-11-01T00:46:45.508Z,21.37
2018-11-01T00:49:14.069Z,22.83
2018-11-01T00:51:42.641Z,20.73
2018-11-01T00:54:11.184Z,20.13
2018-11-01T00:56:39.756Z,20.40
2018-11-01T00:59:08.277Z,22.27
2018-11-01T01:01:36.830Z,20.60
2018-11-01T01:04:05.490Z,25.33
2018-11-01T01:06:34.363Z,22.83
2018-11-01T01:09:03.446Z,22.13
2018-11-01T01:11:32.026Z,22.80
2018-11-01T01:14:00.560Z,22.50
2018-11-01T01:16:29.113Z,19.77
2018-11-01T01:18:57.724Z,21.40
2018-11-01T01:21:26.489Z,17.30
2018-11-01T01:23:55.015Z,19.53
2018-11-01T01:26:23.664Z,23.10
2018-11-01T01:28:52.244Z,18.67
2018-11-01T01:31:20.779Z,19.30
2018-11-01T01:33:49.289Z,19.37
2018-11-01T01:36:17.839Z,20.13
2018-11-01T01:38:47.405Z,18.27
2018-11-01T01:41:16.004Z,17.27
2018-11-01T01:43:44.549Z,19.70
2018-11-01T01:46:13.097Z,16.43
2018-11-01T01:48:41.873Z,18.17
2018-11-01T01:51:10.390Z,17.57
2018-11-01T01:53:38.994Z,19.47
2018-11-01T01:56:07.531Z,18.63
2018-11-01T01:58:36.050Z,17.57
2018-11-01T02:01:04.805Z,19.17
2018-11-01T02:03:33.345Z,23.47
2018-11-01T02:06:01.910Z,20.97
2018-11-01T02:08:30.483Z,18.83
2018-11-01T02:10:59.064Z,16.57
2018-11-01T02:13:27.713Z,18.60
2018-11-01T02:15:56.250Z,16.57
2018-11-01T02:18:24.842Z,20.13
2018-11-01T02:20:53.404Z,16.70
2018-11-01T02:23:22.006Z,18.23
2018-11-01T02:25:50.549Z,14.73
2018-11-01T02:28:19.799Z,18.50
2018-11-01T02:30:48.383Z,18.63
2018-11-01T02:33:16.922Z,16.67
2018-11-01T02:35:45.465Z,18.20
2018-11-01T02:38:14.048Z,19.57
2018-11-01T02:40:42.755Z,16.77
2018-11-01T02:45:41.940Z,14.57
2018-11-01T02:48:10.524Z,16.57
2018-11-01T02:50:39.114Z,14.87
2018-11-01T02:53:07.723Z,14.73
2018-11-01T02:55:36.318Z,14.03
2018-11-01T02:58:04.866Z,16.80
2018-11-01T03:00:33.975Z,15.70
2018-11-01T03:03:02.665Z,18.00
2018-11-01T03:05:31.310Z,16.53
2018-11-01T03:07:59.975Z,18.57
2018-11-01T03:10:33.229Z,19.77
2018-11-01T03:13:02.636Z,17.60
2018-11-01T03:15:31.289Z,17.20
2018-11-01T03:18:01.101Z,13.83
2018-11-01T03:20:29.906Z,14.73
2018-11-01T03:22:58.537Z,15.33
2018-11-01T03:25:27.155Z,18.03
2018-11-01T03:27:55.784Z,17.50
2018-11-01T03:30:25.564Z,13.73
2018-11-01T03:32:54.917Z,15.23
2018-11-01T03:35:24.285Z,14.10
2018-11-01T03:37:53.616Z,12.67
2018-11-01T03:40:22.437Z,13.10
2018-11-01T03:42:51.127Z,14.13
2018-11-01T03:45:19.710Z,16.20
2018-11-01T03:47:48.635Z,12.03
2018-11-01T03:50:17.429Z,11.30
2018-11-01T03:52:46.000Z,14.43
2018-11-01T03:55:14.539Z,11.53
2018-11-01T03:57:43.495Z,12.87
2018-11-01T04:00:14.517Z,12.33
2018-11-01T04:02:45.086Z,14.43
2018-11-01T04:05:13.660Z,11.27
2018-11-01T04:07:43.435Z,15.40
2018-11-01T04:10:12.306Z,15.97
2018-11-01T04:12:42.161Z,10.07
2018-11-01T04:15:12.762Z,13.23
2018-11-01T04:17:41.350Z,15.33
2018-11-01T04:20:11.177Z,15.47
2018-11-01T04:22:40.505Z,12.80
2018-11-01T04:25:09.069Z,11.67
2018-11-01T04:27:37.865Z,12.10
2018-11-01T04:30:07.228Z,11.43
2018-11-01T04:32:35.750Z,15.00
2018-11-01T04:35:04.630Z,13.20
2018-11-01T04:37:33.339Z,10.93
2018-11-01T04:40:01.997Z,11.67
2018-11-01T04:42:30.557Z,11.43
2018-11-01T04:44:59.336Z,13.67
2018-11-01T04:47:28.054Z,9.70
2018-11-01T04:49:56.745Z,11.20
2018-11-01T04:52:25.274Z,10.33
2018-11-01T04:54:53.869Z,11.90
2018-11-01T04:57:22.445Z,10.30
2018-11-01T04:59:50.991Z,10.07
2018-11-01T05:02:19.516Z,13.07
2018-11-01T05:04:48.156Z,14.93
2018-11-01T05:07:16.889Z,12.27
2018-11-01T05:09:45.528Z,16.97
2018-11-01T05:12:14.186Z,11.00
2018-11-01T05:14:42.790Z,9.67
2018-11-01T05:17:11.301Z,9.77
2018-11-01T05:19:39.902Z,7.77
2018-11-01T05:22:08.762Z,6.73
2018-11-01T05:24:37.519Z,8.07
2018-11-01T05:27:06.747Z,10.20
2018-11-01T05:29:35.312Z,6.40
2018-11-01T05:32:03.926Z,6.07
2018-11-01T05:34:32.509Z,7.13
2018-11-01T05:37:01.233Z,13.43
2018-11-01T05:39:29.807Z,49.37
2018-11-01T05:41:58.381Z,36.70
2018-11-01T05:44:26.913Z,17.67
2018-11-01T05:46:55.509Z,19.53
2018-11-01T05:49:24.214Z,26.47
2018-11-01T05:51:52.820Z,17.50
2018-11-01T05:54:21.372Z,19.00
2018-11-01T05:56:49.911Z,11.17
2018-11-01T05:59:18.479Z,15.03
2018-11-01T06:01:52.800Z,14.17
2018-11-01T06:04:21.411Z,16.57
2018-11-01T06:06:50.007Z,15.40
2018-11-01T06:09:23.860Z,16.67
2018-11-01T06:11:52.401Z,16.00
2018-11-01T06:14:21.047Z,14.97
2018-11-01T06:16:49.658Z,17.23
2018-11-01T06:19:18.188Z,18.33
2018-11-01T06:21:46.830Z,14.23
2018-11-01T06:24:15.805Z,13.57
2018-11-01T06:26:44.350Z,16.80
2018-11-01T06:29:12.963Z,15.93
2018-11-01T06:31:41.497Z,12.23
2018-11-01T06:34:14.390Z,14.33
2018-11-01T06:36:42.931Z,10.80
2018-11-01T06:39:11.462Z,9.13
2018-11-01T06:41:40.002Z,8.50
2018-11-01T06:44:08.537Z,11.40
2018-11-01T06:46:37.155Z,7.43
2018-11-01T06:49:06.355Z,11.03
2018-11-01T06:51:34.882Z,13.07
2018-11-01T06:54:03.477Z,14.67
2018-11-01T06:56:31.993Z,10.57
2018-11-01T06:59:00.658Z,12.17
2018-11-01T07:01:29.342Z,11.07
2018-11-01T07:03:57.911Z,12.83
2018-11-01T07:06:26.499Z,11.60
2018-11-01T07:08:55.054Z,11.93
2018-11-01T07:11:23.685Z,11.53
2018-11-01T07:13:52.358Z,15.97
2018-11-01T07:16:20.869Z,13.13
2018-11-01T07:18:49.424Z,16.27
2018-11-01T07:21:17.973Z,11.80
2018-11-01T07:23:46.658Z,15.53
2018-11-01T07:26:15.341Z,12.13
2018-11-01T07:28:44.358Z,11.33
2018-11-01T07:31:12.907Z,10.23
2018-11-01T07:33:41.654Z,10.60
2018-11-01T07:36:10.291Z,13.10
2018-11-01T07:38:38.914Z,12.87
2018-11-01T07:41:08.151Z,12.63
2018-11-01T07:43:41.339Z,14.00
2018-11-01T07:46:22.416Z,15.00
2018-11-01T07:48:51.045Z,18.33
2018-11-01T07:51:21.763Z,10.30
2018-11-01T07:53:51.639Z,13.70
2018-11-01T07:56:20.445Z,14.53
2018-11-01T07:58:49.241Z,10.50
2018-11-01T08:01:18.353Z,13.07
2018-11-01T08:03:46.934Z,13.57
2018-11-01T08:06:15.464Z,10.87
2018-11-01T08:08:44.076Z,10.27
2018-11-01T08:11:12.794Z,10.90
2018-11-01T08:13:41.462Z,10.67
2018-11-01T08:16:10.101Z,14.47
2018-11-01T08:18:38.942Z,11.20
2018-11-01T08:21:07.786Z,11.73
2018-11-01T08:23:36.517Z,12.70
2018-11-01T08:26:05.382Z,12.30
2018-11-01T08:28:33.925Z,11.93
2018-11-01T08:31:02.462Z,11.03
2018-11-01T08:33:31.014Z,10.73
2018-11-01T08:35:59.756Z,11.07
2018-11-01T08:38:28.375Z,16.80
2018-11-01T08:40:57.194Z,11.70
2018-11-01T08:43:25.966Z,19.33
2018-11-01T08:45:54.518Z,10.03
2018-11-01T08:48:23.562Z,13.83
2018-11-01T08:50:52.234Z,13.33
2018-11-01T08:53:21.703Z,12.97
2018-11-01T08:55:50.376Z,11.40
2018-11-01T08:58:19.041Z,11.10
2018-11-01T09:00:47.755Z,12.97
2018-11-01T09:03:16.852Z,17.90
2018-11-01T09:05:45.607Z,14.20
2018-11-01T09:08:14.186Z,14.40
2018-11-01T09:10:42.721Z,19.23
2018-11-01T09:13:11.569Z,28.13
2018-11-01T09:15:40.977Z,10.73
2018-11-01T09:18:09.682Z,36.97
2018-11-01T09:20:38.265Z,13.90
2018-11-01T09:23:07.045Z,35.57
2018-11-01T09:25:35.702Z,24.00
2018-11-01T09:28:04.325Z,22.50
2018-11-01T09:30:33.044Z,16.63
2018-11-01T09:33:01.840Z,25.67
2018-11-01T09:35:30.470Z,26.10
2018-11-01T09:38:02.765Z,21.83
2018-11-01T09:40:31.330Z,11.77
2018-11-01T09:42:59.853Z,19.77
2018-11-01T09:45:28.444Z,19.53
2018-11-01T09:47:57.455Z,19.43
2018-11-01T09:50:26.985Z,13.97
2018-11-01T09:52:55.819Z,18.37
2018-11-01T09:55:24.860Z,16.23
2018-11-01T09:57:55.470Z,18.67
2018-11-01T10:00:24.760Z,13.07
2018-11-01T10:02:54.105Z,17.33
2018-11-01T10:05:25.862Z,18.37
2018-11-01T10:07:54.680Z,15.57
2018-11-01T10:10:23.266Z,23.40
2018-11-01T10:12:51.812Z,17.33
2018-11-01T10:15:20.377Z,13.20
2018-11-01T10:17:49.444Z,20.80
2018-11-01T10:20:17.861Z,23.83
2018-11-01T10:22:46.556Z,19.20
2018-11-01T10:25:16.184Z,20.23
2018-11-01T10:27:44.970Z,22.37
2018-11-01T10:30:17.660Z,19.23
2018-11-01T10:32:46.654Z,20.90
2018-11-01T10:35:16.436Z,21.27
2018-11-01T10:37:52.029Z,12.87
2018-11-01T10:40:22.453Z,22.77
2018-11-01T10:42:51.421Z,26.17
2018-11-01T10:45:20.425Z,13.60
2018-11-01T10:47:50.046Z,19.70
2018-11-01T10:50:20.360Z,15.30
2018-11-01T10:52:49.895Z,14.40
2018-11-01T10:55:18.827Z,18.67
2018-11-01T10:57:47.675Z,24.83
2018-11-01T11:00:21.703Z,21.90
2018-11-01T11:02:51.593Z,18.07
2018-11-01T11:05:21.395Z,19.93
2018-11-01T11:07:50.261Z,16.87
2018-11-01T11:10:19.080Z,20.20
2018-11-01T11:12:47.629Z,21.73
2018-11-01T11:15:16.177Z,15.70
2018-11-01T11:17:44.745Z,20.70
2018-11-01T11:20:13.596Z,18.60
2018-11-01T11:22:42.335Z,17.13
2018-11-01T11:25:12.085Z,15.33
2018-11-01T11:27:40.788Z,18.50
2018-11-01T11:30:10.767Z,18.03
2018-11-01T11:32:39.620Z,11.70
2018-11-01T11:35:08.773Z,17.67
2018-11-01T11:37:37.342Z,20.17
2018-11-01T11:40:07.345Z,17.73
2018-11-01T11:42:35.987Z,18.13
2018-11-01T11:45:05.004Z,14.20
2018-11-01T11:47:33.545Z,24.20
2018-11-01T11:50:02.070Z,21.27
2018-11-01T11:52:32.724Z,20.20
2018-11-01T11:55:03.315Z,14.30
2018-11-01T11:57:33.957Z,21.70
2018-11-01T12:00:02.594Z,25.63
2018-11-01T12:02:32.192Z,21.63
2018-11-01T12:05:00.852Z,19.73
2018-11-01T12:07:29.373Z,17.47
2018-11-01T12:09:57.950Z,15.37
2018-11-01T12:12:26.572Z,21.30
2018-11-01T12:14:55.093Z,16.60
2018-11-01T12:17:23.667Z,18.83
2018-11-01T12:19:52.256Z,23.63
2018-11-01T12:22:21.508Z,20.83
2018-11-01T12:24:50.743Z,20.13
2018-11-01T12:27:20.566Z,24.00
2018-11-01T12:29:49.840Z,22.47
2018-11-01T12:32:27.723Z,22.37
2018-11-01T12:34:57.097Z,25.03
2018-11-01T12:37:27.761Z,20.57
2018-11-01T12:39:57.364Z,20.97
2018-11-01T12:42:31.682Z,21.37
2018-11-01T12:45:00.616Z,20.93
2018-11-01T12:47:32.201Z,27.10
2018-11-01T12:50:01.176Z,23.47
2018-11-01T12:52:30.212Z,20.90
2018-11-01T12:54:59.119Z,24.60
2018-11-01T12:57:28.132Z,23.77
2018-11-01T12:59:58.517Z,20.33
2018-11-01T13:02:27.550Z,20.50
2018-11-01T13:04:57.939Z,19.67
2018-11-01T13:07:27.036Z,28.27
2018-11-01T13:09:55.806Z,27.83
2018-11-01T13:12:24.498Z,21.50
2018-11-01T13:14:53.102Z,24.40
2018-11-01T13:17:21.852Z,22.47
2018-11-01T13:19:50.698Z,24.53
2018-11-01T13:22:19.246Z,21.20
2018-11-01T13:24:47.797Z,22.07
2018-11-01T13:27:16.398Z,24.30
2018-11-01T13:29:44.949Z,28.13
2018-11-01T13:32:15.152Z,21.50
2018-11-01T13:34:43.786Z,20.90
2018-11-01T13:37:12.521Z,22.10
2018-11-01T13:39:41.197Z,27.20
2018-11-01T13:42:09.947Z,27.97
2018-11-01T13:44:38.697Z,22.00
2018-11-01T13:47:07.259Z,22.97
2018-11-01T13:49:36.039Z,19.27
2018-11-01T13:52:04.630Z,24.43
2018-11-01T13:54:33.176Z,28.60
2018-11-01T13:57:02.003Z,23.80
2018-11-01T13:59:30.565Z,20.47
2018-11-01T14:01:59.133Z,19.80
2018-11-01T14:04:27.749Z,20.87
2018-11-01T14:06:56.349Z,18.07
2018-11-01T14:09:24.877Z,21.27
2018-11-01T14:11:53.457Z,27.77
2018-11-01T14:14:22.366Z,20.20
2018-11-01T14:16:50.768Z,17.67
2018-11-01T14:19:19.355Z,17.67
2018-11-01T14:21:47.897Z,19.33
2018-11-01T14:24:16.495Z,18.77
2018-11-01T14:26:45.124Z,22.73
2018-11-01T14:29:13.741Z,16.67
2018-11-01T14:31:42.282Z,18.07
2018-11-01T14:34:10.862Z,23.87
2018-11-01T14:36:39.482Z,25.27
2018-11-01T14:39:10.026Z,28.97
2018-11-01T14:41:38.597Z,21.50
2018-11-01T14:44:07.353Z,26.03
2018-11-01T14:46:36.042Z,27.33
2018-11-01T14:49:04.613Z,27.10
2018-11-01T14:51:33.746Z,25.00
2018-11-01T14:54:02.837Z,24.13
2018-11-01T14:56:32.374Z,21.33
2018-11-01T14:59:01.073Z,30.53
2018-11-01T15:01:28.540Z,48.10
2018-11-01T15:03:57.106Z,34.73
2018-11-01T15:06:25.681Z,26.33
2018-11-01T15:08:54.594Z,21.93
2018-11-01T15:11:23.647Z,34.77
2018-11-01T15:13:52.261Z,32.87
2018-11-01T15:16:20.823Z,30.63
2018-11-01T15:18:49.582Z,29.87
2018-11-01T15:21:18.417Z,35.73
2018-11-01T15:23:47.354Z,31.10
2018-11-01T15:26:16.004Z,73.10
2018-11-01T15:28:44.717Z,64.67
2018-11-01T15:31:13.348Z,134.53
2018-11-01T15:33:42.111Z,52.43
2018-11-01T15:36:10.832Z,107.03
2018-11-01T15:38:39.437Z,58.63
2018-11-01T15:41:12.390Z,81.80
2018-11-01T15:43:41.467Z,80.00
2018-11-01T15:46:10.884Z,79.13
2018-11-01T15:48:40.144Z,50.77
2018-11-01T15:51:09.655Z,89.63
2018-11-01T15:53:38.406Z,72.50
2018-11-01T15:56:07.112Z,114.13
2018-11-01T15:58:35.983Z,135.93
2018-11-01T16:01:05.312Z,72.70
2018-11-01T16:03:34.001Z,69.70
2018-11-01T16:06:03.037Z,110.30
2018-11-01T16:08:31.583Z,220.77
2018-11-01T16:11:00.241Z,173.27
2018-11-01T16:13:28.913Z,130.30
2018-11-01T16:15:57.551Z,162.40
2018-11-01T16:18:26.459Z,98.10
2018-11-01T16:20:55.050Z,72.30
2018-11-01T16:23:23.699Z,176.37
2018-11-01T16:25:52.432Z,93.40
2018-11-01T16:28:21.053Z,74.83
2018-11-01T16:30:49.637Z,98.87
2018-11-01T16:33:18.199Z,72.10
2018-11-01T16:35:46.784Z,45.70
2018-11-01T16:38:15.390Z,71.57
2018-11-01T16:40:43.962Z,61.50
2018-11-01T16:43:12.621Z,52.13
2018-11-01T16:45:41.563Z,56.03
2018-11-01T16:48:10.291Z,39.20
2018-11-01T16:50:38.941Z,49.03
2018-11-01T16:53:07.702Z,114.50
2018-11-01T16:55:36.339Z,169.57
2018-11-01T16:58:05.292Z,112.13
2018-11-01T17:00:33.894Z,114.73
2018-11-01T17:03:02.631Z,135.40
2018-11-01T17:05:31.237Z,111.17
2018-11-01T17:07:59.879Z,67.27
2018-11-01T17:10:28.482Z,92.83
2018-11-01T17:12:57.517Z,84.60
2018-11-01T17:15:26.053Z,70.93
2018-11-01T17:17:54.659Z,66.57
2018-11-01T17:20:23.214Z,89.20
2018-11-01T17:22:52.497Z,103.90
2018-11-01T17:25:21.211Z,90.50
2018-11-01T17:27:49.793Z,95.27
2018-11-01T17:30:18.403Z,75.30
2018-11-01T17:32:50.537Z,73.37
2018-11-01T17:35:19.102Z,99.43
2018-11-01T17:37:47.753Z,105.67
2018-11-01T17:40:16.437Z,151.30
2018-11-01T17:42:45.511Z,116.30
2018-11-01T17:45:14.116Z,112.57
2018-11-01T17:47:43.271Z,93.27
2018-11-01T17:50:13.365Z,109.53
2018-11-01T17:52:42.518Z,63.43
2018-11-01T17:55:12.072Z,75.10
2018-11-01T17:57:41.022Z,53.70
2018-11-01T18:00:11.971Z,85.07
2018-11-01T18:02:41.488Z,123.53
2018-11-01T18:05:10.751Z,123.43
2018-11-01T18:07:39.909Z,63.87
2018-11-01T18:10:10.362Z,82.43
2018-11-01T18:12:39.087Z,71.90
2018-11-01T18:15:08.271Z,60.17
2018-11-01T18:17:36.946Z,62.90
2018-11-01T18:20:07.418Z,61.43
2018-11-01T18:22:36.054Z,73.73
2018-11-01T18:25:05.012Z,66.93
2018-11-01T18:27:33.757Z,60.07
2018-11-01T18:30:02.488Z,50.13
2018-11-01T18:32:31.928Z,68.83
2018-11-01T18:35:01.089Z,64.33
2018-11-01T18:37:30.591Z,72.77
2018-11-01T18:39:59.988Z,67.07
2018-11-01T18:42:29.610Z,48.87
2018-11-01T18:44:59.711Z,51.37
2018-11-01T18:47:29.196Z,45.50
2018-11-01T18:49:59.106Z,52.60
2018-11-01T18:52:28.492Z,62.37
2018-11-01T18:54:58.064Z,68.70
2018-11-01T18:57:28.044Z,54.50
2018-11-01T18:59:58.432Z,50.47
2018-11-01T19:02:29.525Z,33.10
2018-11-01T19:04:58.911Z,55.47
2018-11-01T19:07:30.961Z,47.33
2018-11-01T19:10:02.203Z,42.30
2018-11-01T19:12:33.649Z,47.07
2018-11-01T19:15:03.813Z,39.87
2018-11-01T19:17:35.283Z,36.97
2018-11-01T19:20:05.204Z,41.67
2018-11-01T19:22:34.863Z,56.90
2018-11-01T19:25:04.451Z,45.90
2018-11-01T19:27:33.844Z,39.50
2018-11-01T19:30:03.851Z,58.70
2018-11-01T19:32:33.247Z,52.90
2018-11-01T19:35:05.014Z,67.00
2018-11-01T19:37:34.771Z,63.77
2018-11-01T19:40:05.489Z,67.77
2018-11-01T19:42:35.195Z,60.10
2018-11-01T19:45:05.547Z,60.77
2018-11-01T19:47:35.180Z,53.43
2018-11-01T19:50:05.438Z,46.73
2018-11-01T19:52:35.526Z,38.50
2018-11-01T19:55:05.705Z,33.43
2018-11-01T19:57:35.842Z,33.33
2018-11-01T20:00:07.222Z,34.03
2018-11-01T20:02:37.377Z,45.73
2018-11-01T20:05:09.523Z,51.00
2018-11-01T20:07:40.090Z,72.70
2018-11-01T20:10:12.381Z,94.47
2018-11-01T20:12:43.309Z,76.13
2018-11-01T20:15:15.037Z,42.13
2018-11-01T20:17:45.778Z,37.57
2018-11-01T20:20:15.815Z,33.23
2018-11-01T20:22:48.007Z,29.63
2018-11-01T20:25:18.089Z,33.57
2018-11-01T20:27:48.313Z,32.90
2018-11-01T20:30:18.605Z,35.60
2018-11-01T20:32:48.587Z,37.77
2018-11-01T20:35:18.095Z,46.03
2018-11-01T20:37:47.433Z,38.97
2018-11-01T20:40:16.257Z,37.23
2018-11-01T20:42:44.938Z,37.80
2018-11-01T20:45:14.182Z,30.30
2018-11-01T20:47:42.785Z,29.50
2018-11-01T20:50:12.720Z,33.00
2018-11-01T20:52:41.495Z,30.47
2018-11-01T20:55:10.138Z,44.83
2018-11-01T20:57:38.835Z,35.23
2018-11-01T21:00:09.453Z,38.50
2018-11-01T21:02:38.225Z,30.10
2018-11-01T21:05:07.325Z,26.03
2018-11-01T21:07:36.059Z,28.60
2018-11-01T21:10:05.419Z,29.27
2018-11-01T21:12:33.998Z,28.90
2018-11-01T21:15:02.691Z,31.93
2018-11-01T21:17:31.281Z,31.07
2018-11-01T21:19:59.910Z,23.63
2018-11-01T21:22:28.649Z,32.80
2018-11-01T21:24:57.198Z,29.60
2018-11-01T21:27:25.924Z,29.67
2018-11-01T21:29:54.510Z,37.43
2018-11-01T21:32:23.281Z,35.70
2018-11-01T21:34:51.868Z,32.47
2018-11-01T21:37:21.468Z,33.73
2018-11-01T21:39:50.110Z,32.90
2018-11-01T21:42:18.687Z,36.30
2018-11-01T21:44:47.331Z,23.33
2018-11-01T21:47:16.046Z,33.10
2018-11-01T21:49:44.654Z,33.07
2018-11-01T21:52:13.283Z,28.67
2018-11-01T21:54:41.838Z,26.67
2018-11-01T21:57:10.453Z,26.67
2018-11-01T21:59:39.054Z,26.50
2018-11-01T22:02:07.670Z,27.20
2018-11-01T22:04:36.249Z,22.07
2018-11-01T22:07:05.488Z,28.40
2018-11-01T22:09:34.227Z,31.13
2018-11-01T22:12:03.306Z,23.23
2018-11-01T22:14:31.889Z,19.00
2018-11-01T22:17:00.420Z,24.03
2018-11-01T22:19:29.320Z,23.13
2018-11-01T22:21:58.121Z,21.13
2018-11-01T22:24:26.716Z,23.87
2018-11-01T22:26:55.254Z,20.90
2018-11-01T22:29:26.230Z,22.07
2018-11-01T22:31:54.800Z,17.13
2018-11-01T22:34:23.365Z,25.13
2018-11-01T22:36:51.925Z,24.63
2018-11-01T22:39:20.606Z,25.80
2018-11-01T22:41:51.149Z,29.30
2018-11-01T22:44:19.761Z,26.77
2018-11-01T22:46:48.359Z,17.63
2018-11-01T22:49:17.034Z,17.30
2018-11-01T22:51:45.619Z,26.57
2018-11-01T22:54:14.172Z,23.33
2018-11-01T22:56:42.767Z,20.40
2018-11-01T22:59:11.354Z,18.37
2018-11-01T23:01:39.935Z,23.37
2018-11-01T23:04:08.529Z,32.77
2018-11-01T23:06:37.266Z,39.47
2018-11-01T23:09:08.550Z,33.63
2018-11-01T23:11:37.526Z,26.57
2018-11-01T23:14:06.193Z,26.00
2018-11-01T23:16:35.093Z,20.57
2018-11-01T23:19:03.637Z,24.27
2018-11-01T23:21:32.201Z,21.90
2018-11-01T23:24:00.807Z,21.37
2018-11-01T23:26:29.433Z,30.87
2018-11-01T23:28:58.198Z,34.53
2018-11-01T23:31:27.296Z,31.40
2018-11-01T23:33:55.893Z,23.00
2018-11-01T23:36:23.611Z,20.70
2018-11-01T23:38:57.446Z,24.33
2018-11-01T23:41:31.378Z,28.67
2018-11-01T23:44:05.447Z,21.53
2018-11-01T23:46:40.035Z,22.70
2018-11-01T23:49:13.309Z,19.07
2018-11-01T23:51:42.558Z,16.70
2018-11-01T23:54:11.352Z,14.33
2018-11-01T23:56:40.115Z,24.17
2018-11-01T23:59:08.713Z,21.27
